sensor_id;sensor_type;location;lat;lon;timestamp;P1;durP1;ratioP1;P2;durP2;ratioP2
67889;SDS011;54685;52.082;5.426;2023-04-24T00:00:19;0.98;;;0.73;;
67889;SDS011;54685;52.082;5.426;2023-04-24T00:02:46;1.85;;;1.10;;
67889;SDS011;54685;52.082;5.426;2023-04-24T00:05:17;3.15;;;1.40;;
67889;SDS011;54685;52.082;5.426;2023-04-24T00:07:44;2.97;;;1.92;;
67889;SDS011;54685;52.082;5.426;2023-04-24T00:10:11;1.77;;;1.67;;
67889;SDS011;54685;52.082;5.426;2023-04-24T00:12:38;3.05;;;2.15;;
67889;SDS011;54685;52.082;5.426;2023-04-24T00:15:05;4.18;;;2.30;;
67889;SDS011;54685;52.082;5.426;2023-04-24T00:17:33;5.18;;;2.55;;
67889;SDS011;54685;52.082;5.426;2023-04-24T00:20:00;3.67;;;2.38;;
67889;SDS011;54685;52.082;5.426;2023-04-24T00:22:31;2.72;;;2.53;;
67889;SDS011;54685;52.082;5.426;2023-04-24T00:24:58;3.85;;;2.40;;
67889;SDS011;54685;52.082;5.426;2023-04-24T00:27:25;4.25;;;3.15;;
67889;SDS011;54685;52.082;5.426;2023-04-24T00:29:52;3.05;;;2.67;;
67889;SDS011;54685;52.082;5.426;2023-04-24T00:32:20;2.58;;;2.35;;
67889;SDS011;54685;52.082;5.426;2023-04-24T00:34:47;5.10;;;2.42;;
67889;SDS011;54685;52.082;5.426;2023-04-24T00:37:14;2.40;;;2.08;;
67889;SDS011;54685;52.082;5.426;2023-04-24T00:39:43;2.78;;;2.40;;
67889;SDS011;54685;52.082;5.426;2023-04-24T00:42:10;5.22;;;2.17;;
67889;SDS011;54685;52.082;5.426;2023-04-24T00:44:38;2.35;;;2.15;;
67889;SDS011;54685;52.082;5.426;2023-04-24T00:47:06;2.30;;;2.08;;
67889;SDS011;54685;52.082;5.426;2023-04-24T00:52:52;3.83;;;2.67;;
67889;SDS011;54685;52.082;5.426;2023-04-24T00:58:20;3.75;;;2.95;;
67889;SDS011;54685;52.082;5.426;2023-04-24T01:00:47;3.30;;;3.00;;
67889;SDS011;54685;52.082;5.426;2023-04-24T01:03:22;5.35;;;4.38;;
67889;SDS011;54685;52.082;5.426;2023-04-24T01:05:53;4.05;;;3.13;;
67889;SDS011;54685;52.082;5.426;2023-04-24T01:08:24;4.75;;;3.40;;
67889;SDS011;54685;52.082;5.426;2023-04-24T01:10:53;3.65;;;3.25;;
67889;SDS011;54685;52.082;5.426;2023-04-24T01:13:21;5.88;;;3.88;;
67889;SDS011;54685;52.082;5.426;2023-04-24T01:15:48;5.75;;;3.92;;
67889;SDS011;54685;52.082;5.426;2023-04-24T01:18:16;6.55;;;3.78;;
67889;SDS011;54685;52.082;5.426;2023-04-24T01:20:43;5.07;;;4.10;;
67889;SDS011;54685;52.082;5.426;2023-04-24T01:23:13;4.75;;;4.25;;
67889;SDS011;54685;52.082;5.426;2023-04-24T01:25:40;4.20;;;3.80;;
67889;SDS011;54685;52.082;5.426;2023-04-24T01:28:07;6.28;;;4.55;;
67889;SDS011;54685;52.082;5.426;2023-04-24T01:30:34;4.70;;;4.30;;
67889;SDS011;54685;52.082;5.426;2023-04-24T01:33:01;5.45;;;4.50;;
67889;SDS011;54685;52.082;5.426;2023-04-24T01:35:29;5.30;;;4.80;;
67889;SDS011;54685;52.082;5.426;2023-04-24T01:37:56;6.00;;;5.15;;
67889;SDS011;54685;52.082;5.426;2023-04-24T01:40:23;10.48;;;5.22;;
67889;SDS011;54685;52.082;5.426;2023-04-24T01:42:50;6.72;;;6.03;;
67889;SDS011;54685;52.082;5.426;2023-04-24T01:45:18;7.57;;;5.38;;
67889;SDS011;54685;52.082;5.426;2023-04-24T01:47:45;5.82;;;5.00;;
67889;SDS011;54685;52.082;5.426;2023-04-24T01:50:13;5.97;;;5.20;;
67889;SDS011;54685;52.082;5.426;2023-04-24T01:52:40;4.50;;;4.20;;
67889;SDS011;54685;52.082;5.426;2023-04-24T01:55:09;5.03;;;4.50;;
67889;SDS011;54685;52.082;5.426;2023-04-24T01:57:36;3.78;;;3.47;;
67889;SDS011;54685;52.082;5.426;2023-04-24T02:00:04;3.78;;;3.35;;
67889;SDS011;54685;52.082;5.426;2023-04-24T02:02:39;4.75;;;3.65;;
67889;SDS011;54685;52.082;5.426;2023-04-24T02:05:08;6.85;;;4.05;;
67889;SDS011;54685;52.082;5.426;2023-04-24T02:07:35;4.80;;;4.38;;
67889;SDS011;54685;52.082;5.426;2023-04-24T02:10:03;8.30;;;5.05;;
67889;SDS011;54685;52.082;5.426;2023-04-24T02:12:31;4.97;;;4.47;;
67889;SDS011;54685;52.082;5.426;2023-04-24T02:14:58;4.50;;;4.10;;
67889;SDS011;54685;52.082;5.426;2023-04-24T02:17:25;4.45;;;3.30;;
67889;SDS011;54685;52.082;5.426;2023-04-24T02:19:52;4.70;;;3.10;;
67889;SDS011;54685;52.082;5.426;2023-04-24T02:22:19;2.72;;;2.50;;
67889;SDS011;54685;52.082;5.426;2023-04-24T02:24:46;3.55;;;2.90;;
67889;SDS011;54685;52.082;5.426;2023-04-24T02:27:14;3.85;;;3.50;;
67889;SDS011;54685;52.082;5.426;2023-04-24T02:29:41;4.47;;;3.58;;
67889;SDS011;54685;52.082;5.426;2023-04-24T02:32:09;4.68;;;4.32;;
67889;SDS011;54685;52.082;5.426;2023-04-24T02:34:38;4.68;;;4.28;;
67889;SDS011;54685;52.082;5.426;2023-04-24T02:37:05;7.70;;;4.68;;
67889;SDS011;54685;52.082;5.426;2023-04-24T02:39:33;5.68;;;4.78;;
67889;SDS011;54685;52.082;5.426;2023-04-24T02:41:59;6.15;;;5.38;;
67889;SDS011;54685;52.082;5.426;2023-04-24T02:44:29;5.25;;;4.70;;
67889;SDS011;54685;52.082;5.426;2023-04-24T02:46:56;4.60;;;4.20;;
67889;SDS011;54685;52.082;5.426;2023-04-24T02:49:23;5.10;;;4.40;;
67889;SDS011;54685;52.082;5.426;2023-04-24T02:51:50;4.30;;;3.90;;
67889;SDS011;54685;52.082;5.426;2023-04-24T02:54:16;4.63;;;4.15;;
67889;SDS011;54685;52.082;5.426;2023-04-24T02:56:43;4.28;;;3.97;;
67889;SDS011;54685;52.082;5.426;2023-04-24T02:59:10;5.40;;;4.35;;
67889;SDS011;54685;52.082;5.426;2023-04-24T03:01:37;4.68;;;4.03;;
67889;SDS011;54685;52.082;5.426;2023-04-24T03:04:04;5.18;;;4.28;;
67889;SDS011;54685;52.082;5.426;2023-04-24T03:06:34;4.60;;;4.20;;
67889;SDS011;54685;52.082;5.426;2023-04-24T03:09:01;6.85;;;5.50;;
67889;SDS011;54685;52.082;5.426;2023-04-24T03:11:30;4.93;;;4.30;;
67889;SDS011;54685;52.082;5.426;2023-04-24T03:13:58;5.55;;;5.00;;
67889;SDS011;54685;52.082;5.426;2023-04-24T03:16:25;5.75;;;5.25;;
67889;SDS011;54685;52.082;5.426;2023-04-24T03:18:54;5.80;;;5.30;;
67889;SDS011;54685;52.082;5.426;2023-04-24T03:21:24;6.40;;;4.60;;
67889;SDS011;54685;52.082;5.426;2023-04-24T03:23:51;5.70;;;5.00;;
67889;SDS011;54685;52.082;5.426;2023-04-24T03:26:18;6.15;;;5.10;;
67889;SDS011;54685;52.082;5.426;2023-04-24T03:28:59;3.50;;;3.20;;
67889;SDS011;54685;52.082;5.426;2023-04-24T03:31:27;3.22;;;2.90;;
67889;SDS011;54685;52.082;5.426;2023-04-24T03:33:54;4.03;;;3.45;;
67889;SDS011;54685;52.082;5.426;2023-04-24T03:36:22;4.72;;;4.32;;
67889;SDS011;54685;52.082;5.426;2023-04-24T03:38:49;5.50;;;4.43;;
67889;SDS011;54685;52.082;5.426;2023-04-24T03:41:23;4.47;;;4.13;;
67889;SDS011;54685;52.082;5.426;2023-04-24T03:43:57;5.10;;;4.70;;
67889;SDS011;54685;52.082;5.426;2023-04-24T03:46:24;5.88;;;5.20;;
67889;SDS011;54685;52.082;5.426;2023-04-24T03:48:56;9.67;;;4.87;;
67889;SDS011;54685;52.082;5.426;2023-04-24T03:51:27;5.43;;;4.93;;
67889;SDS011;54685;52.082;5.426;2023-04-24T03:54:05;5.40;;;4.85;;
67889;SDS011;54685;52.082;5.426;2023-04-24T03:56:35;4.72;;;4.32;;
67889;SDS011;54685;52.082;5.426;2023-04-24T03:59:02;4.55;;;4.15;;
67889;SDS011;54685;52.082;5.426;2023-04-24T04:01:30;5.05;;;4.10;;
67889;SDS011;54685;52.082;5.426;2023-04-24T04:04:08;3.58;;;3.28;;
67889;SDS011;54685;52.082;5.426;2023-04-24T04:06:36;5.28;;;2.92;;
67889;SDS011;54685;52.082;5.426;2023-04-24T04:09:04;3.20;;;2.90;;
67889;SDS011;54685;52.082;5.426;2023-04-24T04:11:31;2.42;;;2.22;;
67889;SDS011;54685;52.082;5.426;2023-04-24T04:13:58;2.75;;;2.20;;
67889;SDS011;54685;52.082;5.426;2023-04-24T04:16:25;5.55;;;2.55;;
67889;SDS011;54685;52.082;5.426;2023-04-24T04:18:58;2.80;;;2.60;;
67889;SDS011;54685;52.082;5.426;2023-04-24T04:21:26;4.38;;;2.47;;
67889;SDS011;54685;52.082;5.426;2023-04-24T04:24:01;7.70;;;3.13;;
67889;SDS011;54685;52.082;5.426;2023-04-24T04:26:33;5.20;;;2.90;;
67889;SDS011;54685;52.082;5.426;2023-04-24T04:29:03;3.60;;;3.30;;
67889;SDS011;54685;52.082;5.426;2023-04-24T04:31:32;3.80;;;2.83;;
67889;SDS011;54685;52.082;5.426;2023-04-24T04:34:04;3.43;;;3.13;;
67889;SDS011;54685;52.082;5.426;2023-04-24T04:36:34;7.90;;;3.25;;
67889;SDS011;54685;52.082;5.426;2023-04-24T04:39:22;3.72;;;3.05;;
67889;SDS011;54685;52.082;5.426;2023-04-24T04:41:55;3.90;;;3.60;;
67889;SDS011;54685;52.082;5.426;2023-04-24T04:44:26;4.68;;;3.72;;
67889;SDS011;54685;52.082;5.426;2023-04-24T04:46:56;4.60;;;3.92;;
67889;SDS011;54685;52.082;5.426;2023-04-24T04:49:28;6.53;;;4.72;;
67889;SDS011;54685;52.082;5.426;2023-04-24T04:51:57;9.25;;;5.13;;
67889;SDS011;54685;52.082;5.426;2023-04-24T04:54:25;5.47;;;4.97;;
67889;SDS011;54685;52.082;5.426;2023-04-24T04:56:53;6.18;;;4.90;;
67889;SDS011;54685;52.082;5.426;2023-04-24T04:59:21;8.68;;;4.85;;
67889;SDS011;54685;52.082;5.426;2023-04-24T05:01:52;5.00;;;4.50;;
67889;SDS011;54685;52.082;5.426;2023-04-24T05:04:19;5.38;;;4.82;;
67889;SDS011;54685;52.082;5.426;2023-04-24T05:06:47;7.88;;;5.45;;
67889;SDS011;54685;52.082;5.426;2023-04-24T05:09:14;5.18;;;4.30;;
67889;SDS011;54685;52.082;5.426;2023-04-24T05:11:57;6.25;;;4.20;;
67889;SDS011;54685;52.082;5.426;2023-04-24T05:14:25;4.53;;;4.13;;
67889;SDS011;54685;52.082;5.426;2023-04-24T05:16:52;5.25;;;4.75;;
67889;SDS011;54685;52.082;5.426;2023-04-24T05:19:21;4.97;;;4.50;;
67889;SDS011;54685;52.082;5.426;2023-04-24T05:21:49;11.25;;;4.88;;
67889;SDS011;54685;52.082;5.426;2023-04-24T05:24:17;5.97;;;4.93;;
67889;SDS011;54685;52.082;5.426;2023-04-24T05:27:03;5.10;;;4.00;;
67889;SDS011;54685;52.082;5.426;2023-04-24T05:29:37;6.57;;;4.22;;
67889;SDS011;54685;52.082;5.426;2023-04-24T05:32:04;4.82;;;4.15;;
67889;SDS011;54685;52.082;5.426;2023-04-24T05:34:33;5.22;;;4.20;;
67889;SDS011;54685;52.082;5.426;2023-04-24T05:37:00;4.63;;;3.92;;
67889;SDS011;54685;52.082;5.426;2023-04-24T05:39:27;6.32;;;4.43;;
67889;SDS011;54685;52.082;5.426;2023-04-24T05:41:54;5.75;;;4.32;;
67889;SDS011;54685;52.082;5.426;2023-04-24T05:44:24;3.90;;;3.50;;
67889;SDS011;54685;52.082;5.426;2023-04-24T05:46:52;4.93;;;3.80;;
67889;SDS011;54685;52.082;5.426;2023-04-24T05:49:19;5.05;;;4.10;;
67889;SDS011;54685;52.082;5.426;2023-04-24T05:51:46;4.57;;;4.15;;
67889;SDS011;54685;52.082;5.426;2023-04-24T05:54:15;9.07;;;4.82;;
67889;SDS011;54685;52.082;5.426;2023-04-24T05:56:42;8.45;;;4.72;;
67889;SDS011;54685;52.082;5.426;2023-04-24T05:59:12;5.40;;;4.50;;
67889;SDS011;54685;52.082;5.426;2023-04-24T06:01:39;9.88;;;5.20;;
67889;SDS011;54685;52.082;5.426;2023-04-24T06:04:13;7.85;;;5.10;;
67889;SDS011;54685;52.082;5.426;2023-04-24T06:06:40;6.78;;;4.97;;
67889;SDS011;54685;52.082;5.426;2023-04-24T06:09:08;9.55;;;4.80;;
67889;SDS011;54685;52.082;5.426;2023-04-24T06:11:35;4.57;;;3.35;;
67889;SDS011;54685;52.082;5.426;2023-04-24T06:14:02;7.22;;;3.83;;
67889;SDS011;54685;52.082;5.426;2023-04-24T06:16:40;3.88;;;2.53;;
67889;SDS011;54685;52.082;5.426;2023-04-24T06:19:26;2.83;;;2.03;;
67889;SDS011;54685;52.082;5.426;2023-04-24T06:21:54;4.57;;;1.95;;
67889;SDS011;54685;52.082;5.426;2023-04-24T06:24:21;8.23;;;1.90;;
67889;SDS011;54685;52.082;5.426;2023-04-24T06:26:48;1.50;;;1.30;;
67889;SDS011;54685;52.082;5.426;2023-04-24T06:29:15;2.10;;;1.30;;
67889;SDS011;54685;52.082;5.426;2023-04-24T06:31:42;2.33;;;1.20;;
67889;SDS011;54685;52.082;5.426;2023-04-24T06:34:09;10.98;;;1.40;;
67889;SDS011;54685;52.082;5.426;2023-04-24T06:36:36;1.10;;;1.05;;
67889;SDS011;54685;52.082;5.426;2023-04-24T06:39:04;2.40;;;1.00;;
67889;SDS011;54685;52.082;5.426;2023-04-24T06:41:31;2.10;;;1.40;;
67889;SDS011;54685;52.082;5.426;2023-04-24T06:43:58;2.10;;;1.45;;
67889;SDS011;54685;52.082;5.426;2023-04-24T06:46:24;2.28;;;1.83;;
67889;SDS011;54685;52.082;5.426;2023-04-24T06:48:54;2.70;;;2.03;;
67889;SDS011;54685;52.082;5.426;2023-04-24T06:51:24;13.52;;;3.72;;
67889;SDS011;54685;52.082;5.426;2023-04-24T06:53:52;5.85;;;4.47;;
67889;SDS011;54685;52.082;5.426;2023-04-24T06:56:19;7.90;;;5.18;;
67889;SDS011;54685;52.082;5.426;2023-04-24T06:58:47;12.90;;;6.45;;
67889;SDS011;54685;52.082;5.426;2023-04-24T07:01:17;12.68;;;6.60;;
67889;SDS011;54685;52.082;5.426;2023-04-24T07:03:44;13.93;;;8.07;;
67889;SDS011;54685;52.082;5.426;2023-04-24T07:06:11;14.13;;;8.43;;
67889;SDS011;54685;52.082;5.426;2023-04-24T07:08:38;14.88;;;7.88;;
67889;SDS011;54685;52.082;5.426;2023-04-24T07:11:08;14.82;;;8.20;;
67889;SDS011;54685;52.082;5.426;2023-04-24T07:13:35;14.20;;;8.70;;
67889;SDS011;54685;52.082;5.426;2023-04-24T07:16:02;16.25;;;9.10;;
67889;SDS011;54685;52.082;5.426;2023-04-24T07:18:29;13.18;;;8.50;;
67889;SDS011;54685;52.082;5.426;2023-04-24T07:20:57;16.88;;;8.52;;
67889;SDS011;54685;52.082;5.426;2023-04-24T07:23:24;15.63;;;8.90;;
67889;SDS011;54685;52.082;5.426;2023-04-24T07:25:51;16.23;;;9.10;;
67889;SDS011;54685;52.082;5.426;2023-04-24T07:28:18;18.60;;;8.80;;
67889;SDS011;54685;52.082;5.426;2023-04-24T07:30:45;17.35;;;8.70;;
67889;SDS011;54685;52.082;5.426;2023-04-24T07:33:12;15.57;;;8.50;;
67889;SDS011;54685;52.082;5.426;2023-04-24T07:35:39;15.65;;;8.85;;
67889;SDS011;54685;52.082;5.426;2023-04-24T07:38:06;19.63;;;9.52;;
67889;SDS011;54685;52.082;5.426;2023-04-24T07:40:33;18.30;;;9.65;;
67889;SDS011;54685;52.082;5.426;2023-04-24T07:43:00;17.67;;;8.48;;
67889;SDS011;54685;52.082;5.426;2023-04-24T07:45:28;20.63;;;10.38;;
67889;SDS011;54685;52.082;5.426;2023-04-24T07:47:56;15.73;;;8.15;;
67889;SDS011;54685;52.082;5.426;2023-04-24T07:50:23;12.32;;;6.95;;
67889;SDS011;54685;52.082;5.426;2023-04-24T07:52:50;16.55;;;8.02;;
67889;SDS011;54685;52.082;5.426;2023-04-24T07:55:17;14.70;;;7.75;;
67889;SDS011;54685;52.082;5.426;2023-04-24T07:57:47;16.60;;;8.43;;
67889;SDS011;54685;52.082;5.426;2023-04-24T08:00:14;19.40;;;8.57;;
67889;SDS011;54685;52.082;5.426;2023-04-24T08:02:42;15.02;;;8.20;;
67889;SDS011;54685;52.082;5.426;2023-04-24T08:05:09;22.77;;;8.43;;
67889;SDS011;54685;52.082;5.426;2023-04-24T08:07:36;17.25;;;8.18;;
67889;SDS011;54685;52.082;5.426;2023-04-24T08:10:04;26.77;;;8.98;;
67889;SDS011;54685;52.082;5.426;2023-04-24T08:12:31;18.92;;;8.65;;
67889;SDS011;54685;52.082;5.426;2023-04-24T08:14:58;17.92;;;8.07;;
67889;SDS011;54685;52.082;5.426;2023-04-24T08:17:25;15.77;;;6.97;;
67889;SDS011;54685;52.082;5.426;2023-04-24T08:19:53;17.38;;;6.38;;
67889;SDS011;54685;52.082;5.426;2023-04-24T08:22:30;21.17;;;6.05;;
67889;SDS011;54685;52.082;5.426;2023-04-24T08:24:59;16.70;;;4.90;;
67889;SDS011;54685;52.082;5.426;2023-04-24T08:27:26;13.35;;;4.38;;
67889;SDS011;54685;52.082;5.426;2023-04-24T08:29:53;16.33;;;4.13;;
67889;SDS011;54685;52.082;5.426;2023-04-24T08:32:21;13.35;;;3.55;;
67889;SDS011;54685;52.082;5.426;2023-04-24T08:34:48;15.10;;;3.92;;
67889;SDS011;54685;52.082;5.426;2023-04-24T08:37:15;23.90;;;3.92;;
67889;SDS011;54685;52.082;5.426;2023-04-24T08:39:42;17.33;;;3.47;;
67889;SDS011;54685;52.082;5.426;2023-04-24T08:42:09;22.08;;;4.55;;
67889;SDS011;54685;52.082;5.426;2023-04-24T08:44:38;20.48;;;3.95;;
67889;SDS011;54685;52.082;5.426;2023-04-24T08:47:06;20.73;;;3.67;;
67889;SDS011;54685;52.082;5.426;2023-04-24T08:49:35;13.27;;;3.60;;
67889;SDS011;54685;52.082;5.426;2023-04-24T08:52:03;19.77;;;3.17;;
67889;SDS011;54685;52.082;5.426;2023-04-24T08:54:33;25.52;;;3.83;;
67889;SDS011;54685;52.082;5.426;2023-04-24T08:57:01;18.13;;;3.42;;
67889;SDS011;54685;52.082;5.426;2023-04-24T08:59:31;29.75;;;3.33;;
67889;SDS011;54685;52.082;5.426;2023-04-24T09:01:58;13.73;;;2.55;;
67889;SDS011;54685;52.082;5.426;2023-04-24T09:04:26;12.50;;;3.20;;
67889;SDS011;54685;52.082;5.426;2023-04-24T09:06:55;14.25;;;3.13;;
67889;SDS011;54685;52.082;5.426;2023-04-24T09:09:26;12.20;;;2.65;;
67889;SDS011;54685;52.082;5.426;2023-04-24T09:11:57;9.65;;;2.70;;
67889;SDS011;54685;52.082;5.426;2023-04-24T09:14:25;14.38;;;2.72;;
67889;SDS011;54685;52.082;5.426;2023-04-24T09:16:54;15.77;;;3.28;;
67889;SDS011;54685;52.082;5.426;2023-04-24T09:19:21;14.52;;;2.60;;
67889;SDS011;54685;52.082;5.426;2023-04-24T09:21:48;9.77;;;2.75;;
67889;SDS011;54685;52.082;5.426;2023-04-24T09:24:19;14.18;;;3.10;;
67889;SDS011;54685;52.082;5.426;2023-04-24T09:26:49;17.13;;;2.90;;
67889;SDS011;54685;52.082;5.426;2023-04-24T09:29:25;14.88;;;2.65;;
67889;SDS011;54685;52.082;5.426;2023-04-24T09:31:52;10.20;;;2.67;;
67889;SDS011;54685;52.082;5.426;2023-04-24T09:34:23;14.32;;;2.75;;
67889;SDS011;54685;52.082;5.426;2023-04-24T09:36:51;13.75;;;2.90;;
67889;SDS011;54685;52.082;5.426;2023-04-24T09:39:20;14.65;;;3.25;;
67889;SDS011;54685;52.082;5.426;2023-04-24T09:41:49;19.20;;;2.80;;
67889;SDS011;54685;52.082;5.426;2023-04-24T09:44:21;8.80;;;3.03;;
67889;SDS011;54685;52.082;5.426;2023-04-24T09:46:59;22.85;;;2.80;;
67889;SDS011;54685;52.082;5.426;2023-04-24T09:49:27;12.90;;;2.65;;
67889;SDS011;54685;52.082;5.426;2023-04-24T09:52:10;18.65;;;3.05;;
67889;SDS011;54685;52.082;5.426;2023-04-24T09:54:38;16.02;;;3.08;;
67889;SDS011;54685;52.082;5.426;2023-04-24T09:57:09;18.70;;;2.90;;
67889;SDS011;54685;52.082;5.426;2023-04-24T09:59:38;10.23;;;2.50;;
67889;SDS011;54685;52.082;5.426;2023-04-24T10:02:17;8.93;;;2.40;;
67889;SDS011;54685;52.082;5.426;2023-04-24T10:04:55;10.70;;;2.55;;
67889;SDS011;54685;52.082;5.426;2023-04-24T10:07:26;19.80;;;2.50;;
67889;SDS011;54685;52.082;5.426;2023-04-24T10:09:53;8.43;;;2.00;;
67889;SDS011;54685;52.082;5.426;2023-04-24T10:12:21;10.25;;;2.38;;
67889;SDS011;54685;52.082;5.426;2023-04-24T10:14:49;7.55;;;1.85;;
67889;SDS011;54685;52.082;5.426;2023-04-24T10:17:17;8.35;;;2.20;;
67889;SDS011;54685;52.082;5.426;2023-04-24T10:19:47;12.35;;;2.15;;
67889;SDS011;54685;52.082;5.426;2023-04-24T10:22:14;6.30;;;2.08;;
67889;SDS011;54685;52.082;5.426;2023-04-24T10:24:44;13.30;;;2.97;;
67889;SDS011;54685;52.082;5.426;2023-04-24T10:27:13;6.68;;;1.67;;
67889;SDS011;54685;52.082;5.426;2023-04-24T10:29:44;7.75;;;2.08;;
67889;SDS011;54685;52.082;5.426;2023-04-24T10:32:14;5.32;;;1.67;;
67889;SDS011;54685;52.082;5.426;2023-04-24T10:34:41;6.57;;;1.60;;
67889;SDS011;54685;52.082;5.426;2023-04-24T10:37:08;5.72;;;1.00;;
67889;SDS011;54685;52.082;5.426;2023-04-24T10:39:35;5.63;;;0.80;;
67889;SDS011;54685;52.082;5.426;2023-04-24T10:42:13;6.53;;;1.27;;
67889;SDS011;54685;52.082;5.426;2023-04-24T10:44:43;8.02;;;1.13;;
67889;SDS011;54685;52.082;5.426;2023-04-24T10:47:14;2.83;;;0.80;;
67889;SDS011;54685;52.082;5.426;2023-04-24T10:49:44;3.17;;;0.75;;
67889;SDS011;54685;52.082;5.426;2023-04-24T10:52:11;3.15;;;0.95;;
67889;SDS011;54685;52.082;5.426;2023-04-24T10:54:41;8.55;;;1.02;;
67889;SDS011;54685;52.082;5.426;2023-04-24T11:00:09;5.85;;;1.15;;
67889;SDS011;54685;52.082;5.426;2023-04-24T11:02:40;5.13;;;1.00;;
67889;SDS011;54685;52.082;5.426;2023-04-24T11:05:15;2.67;;;0.63;;
67889;SDS011;54685;52.082;5.426;2023-04-24T11:08:09;5.63;;;1.60;;
67889;SDS011;54685;52.082;5.426;2023-04-24T11:10:46;2.90;;;1.05;;
67889;SDS011;54685;52.082;5.426;2023-04-24T11:13:14;12.82;;;7.95;;
67889;SDS011;54685;52.082;5.426;2023-04-24T11:15:43;12.57;;;6.75;;
67889;SDS011;54685;52.082;5.426;2023-04-24T11:18:14;4.07;;;1.10;;
67889;SDS011;54685;52.082;5.426;2023-04-24T11:20:43;5.15;;;1.45;;
67889;SDS011;54685;52.082;5.426;2023-04-24T11:23:11;5.72;;;1.05;;
67889;SDS011;54685;52.082;5.426;2023-04-24T11:25:39;5.90;;;1.20;;
67889;SDS011;54685;52.082;5.426;2023-04-24T11:28:09;7.80;;;1.23;;
67889;SDS011;54685;52.082;5.426;2023-04-24T11:30:42;5.82;;;1.02;;
67889;SDS011;54685;52.082;5.426;2023-04-24T11:33:09;4.32;;;1.15;;
67889;SDS011;54685;52.082;5.426;2023-04-24T11:35:39;3.47;;;0.80;;
67889;SDS011;54685;52.082;5.426;2023-04-24T11:38:06;3.60;;;1.02;;
67889;SDS011;54685;52.082;5.426;2023-04-24T11:43:16;7.43;;;1.10;;
67889;SDS011;54685;52.082;5.426;2023-04-24T11:45:49;10.18;;;1.08;;
67889;SDS011;54685;52.082;5.426;2023-04-24T11:48:19;6.63;;;1.60;;
67889;SDS011;54685;52.082;5.426;2023-04-24T11:50:49;2.85;;;0.68;;
67889;SDS011;54685;52.082;5.426;2023-04-24T11:53:18;5.82;;;1.02;;
67889;SDS011;54685;52.082;5.426;2023-04-24T11:55:48;2.92;;;0.88;;
67889;SDS011;54685;52.082;5.426;2023-04-24T11:58:15;4.68;;;0.77;;
67889;SDS011;54685;52.082;5.426;2023-04-24T12:00:54;3.10;;;0.68;;
67889;SDS011;54685;52.082;5.426;2023-04-24T12:03:23;5.28;;;1.10;;
67889;SDS011;54685;52.082;5.426;2023-04-24T12:05:50;4.13;;;0.70;;
67889;SDS011;54685;52.082;5.426;2023-04-24T12:08:29;2.47;;;0.77;;
67889;SDS011;54685;52.082;5.426;2023-04-24T12:10:59;2.63;;;0.60;;
67889;SDS011;54685;52.082;5.426;2023-04-24T12:13:27;3.08;;;0.77;;
67889;SDS011;54685;52.082;5.426;2023-04-24T12:16:02;8.48;;;1.00;;
67889;SDS011;54685;52.082;5.426;2023-04-24T12:18:30;3.70;;;0.85;;
67889;SDS011;54685;52.082;5.426;2023-04-24T12:23:48;3.40;;;1.00;;
67889;SDS011;54685;52.082;5.426;2023-04-24T12:26:17;11.63;;;1.33;;
67889;SDS011;54685;52.082;5.426;2023-04-24T12:28:48;6.88;;;1.20;;
67889;SDS011;54685;52.082;5.426;2023-04-24T12:31:16;7.60;;;1.27;;
67889;SDS011;54685;52.082;5.426;2023-04-24T12:33:43;9.20;;;1.30;;
67889;SDS011;54685;52.082;5.426;2023-04-24T12:36:10;6.38;;;1.20;;
67889;SDS011;54685;52.082;5.426;2023-04-24T12:38:39;7.10;;;1.30;;
67889;SDS011;54685;52.082;5.426;2023-04-24T12:41:11;6.10;;;1.30;;
67889;SDS011;54685;52.082;5.426;2023-04-24T12:43:50;6.10;;;1.65;;
67889;SDS011;54685;52.082;5.426;2023-04-24T12:46:21;5.88;;;1.20;;
67889;SDS011;54685;52.082;5.426;2023-04-24T12:48:48;3.90;;;1.15;;
67889;SDS011;54685;52.082;5.426;2023-04-24T12:51:15;9.90;;;1.60;;
67889;SDS011;54685;52.082;5.426;2023-04-24T12:53:42;11.48;;;2.20;;
67889;SDS011;54685;52.082;5.426;2023-04-24T12:56:09;5.32;;;1.30;;
67889;SDS011;54685;52.082;5.426;2023-04-24T12:58:36;5.28;;;1.38;;
67889;SDS011;54685;52.082;5.426;2023-04-24T13:01:03;8.85;;;1.60;;
67889;SDS011;54685;52.082;5.426;2023-04-24T13:03:31;6.82;;;1.40;;
67889;SDS011;54685;52.082;5.426;2023-04-24T13:05:58;9.45;;;1.60;;
67889;SDS011;54685;52.082;5.426;2023-04-24T13:08:26;12.25;;;1.90;;
67889;SDS011;54685;52.082;5.426;2023-04-24T13:10:53;12.75;;;2.30;;
67889;SDS011;54685;52.082;5.426;2023-04-24T13:13:20;8.70;;;2.25;;
67889;SDS011;54685;52.082;5.426;2023-04-24T13:15:58;16.00;;;2.47;;
67889;SDS011;54685;52.082;5.426;2023-04-24T13:18:26;12.55;;;2.08;;
67889;SDS011;54685;52.082;5.426;2023-04-24T13:20:53;12.30;;;2.72;;
67889;SDS011;54685;52.082;5.426;2023-04-24T13:23:20;9.40;;;2.00;;
67889;SDS011;54685;52.082;5.426;2023-04-24T13:25:54;11.55;;;2.05;;
67889;SDS011;54685;52.082;5.426;2023-04-24T13:28:24;16.70;;;2.15;;
67889;SDS011;54685;52.082;5.426;2023-04-24T13:30:51;13.90;;;2.22;;
67889;SDS011;54685;52.082;5.426;2023-04-24T13:33:18;11.95;;;2.60;;
67889;SDS011;54685;52.082;5.426;2023-04-24T13:35:45;8.00;;;2.35;;
67889;SDS011;54685;52.082;5.426;2023-04-24T13:38:12;12.02;;;2.53;;
67889;SDS011;54685;52.082;5.426;2023-04-24T13:40:39;13.88;;;2.88;;
67889;SDS011;54685;52.082;5.426;2023-04-24T13:43:06;12.60;;;3.13;;
67889;SDS011;54685;52.082;5.426;2023-04-24T13:45:33;12.43;;;3.15;;
67889;SDS011;54685;52.082;5.426;2023-04-24T13:48:00;12.50;;;2.83;;
67889;SDS011;54685;52.082;5.426;2023-04-24T13:50:32;12.88;;;2.47;;
67889;SDS011;54685;52.082;5.426;2023-04-24T13:52:59;10.73;;;2.42;;
67889;SDS011;54685;52.082;5.426;2023-04-24T13:55:28;10.30;;;2.70;;
67889;SDS011;54685;52.082;5.426;2023-04-24T13:57:55;12.77;;;2.65;;
67889;SDS011;54685;52.082;5.426;2023-04-24T14:00:22;12.27;;;2.67;;
67889;SDS011;54685;52.082;5.426;2023-04-24T14:02:49;15.38;;;2.95;;
67889;SDS011;54685;52.082;5.426;2023-04-24T14:05:17;6.35;;;2.15;;
67889;SDS011;54685;52.082;5.426;2023-04-24T14:07:44;8.52;;;2.00;;
67889;SDS011;54685;52.082;5.426;2023-04-24T14:10:11;11.50;;;2.20;;
67889;SDS011;54685;52.082;5.426;2023-04-24T14:12:38;7.00;;;2.33;;
67889;SDS011;54685;52.082;5.426;2023-04-24T14:15:05;9.07;;;2.38;;
67889;SDS011;54685;52.082;5.426;2023-04-24T14:17:33;8.75;;;2.35;;
67889;SDS011;54685;52.082;5.426;2023-04-24T14:20:00;10.38;;;2.47;;
67889;SDS011;54685;52.082;5.426;2023-04-24T14:22:28;11.70;;;2.53;;
67889;SDS011;54685;52.082;5.426;2023-04-24T14:24:55;11.80;;;2.35;;
67889;SDS011;54685;52.082;5.426;2023-04-24T14:27:22;12.68;;;2.83;;
67889;SDS011;54685;52.082;5.426;2023-04-24T14:29:49;13.77;;;2.72;;
67889;SDS011;54685;52.082;5.426;2023-04-24T14:32:16;10.48;;;2.60;;
67889;SDS011;54685;52.082;5.426;2023-04-24T14:34:43;10.52;;;2.65;;
67889;SDS011;54685;52.082;5.426;2023-04-24T14:37:10;9.35;;;2.53;;
67889;SDS011;54685;52.082;5.426;2023-04-24T14:39:37;11.80;;;2.58;;
67889;SDS011;54685;52.082;5.426;2023-04-24T14:42:04;12.05;;;2.70;;
67889;SDS011;54685;52.082;5.426;2023-04-24T14:44:31;7.13;;;2.28;;
67889;SDS011;54685;52.082;5.426;2023-04-24T14:46:58;9.55;;;2.38;;
67889;SDS011;54685;52.082;5.426;2023-04-24T14:49:26;8.13;;;2.30;;
67889;SDS011;54685;52.082;5.426;2023-04-24T14:51:53;13.85;;;3.17;;
67889;SDS011;54685;52.082;5.426;2023-04-24T14:54:20;7.75;;;2.20;;
67889;SDS011;54685;52.082;5.426;2023-04-24T14:56:49;9.30;;;2.53;;
67889;SDS011;54685;52.082;5.426;2023-04-24T14:59:30;9.25;;;2.55;;
67889;SDS011;54685;52.082;5.426;2023-04-24T15:02:06;10.05;;;2.58;;
67889;SDS011;54685;52.082;5.426;2023-04-24T15:04:46;11.30;;;2.53;;
67889;SDS011;54685;52.082;5.426;2023-04-24T15:07:13;11.35;;;2.95;;